createdAt,value
2018-04-07T00:01:19.637Z,99.90
2018-04-07T00:03:53.473Z,99.90
2018-04-07T00:06:21.881Z,99.90
2018-04-07T00:08:50.325Z,99.90
2018-04-07T00:11:18.681Z,99.90
2018-04-07T00:13:47.227Z,99.90
2018-04-07T00:16:15.669Z,99.90
2018-04-07T00:18:44.113Z,99.90
2018-04-07T00:21:12.507Z,99.90
2018-04-07T00:23:40.913Z,99.90
2018-04-07T00:26:11.745Z,99.90
2018-04-07T00:28:40.120Z,99.90
2018-04-07T00:31:09.388Z,99.90
2018-04-07T00:33:37.794Z,99.90
2018-04-07T00:36:06.180Z,99.90
2018-04-07T00:38:34.652Z,99.90
2018-04-07T00:41:03.223Z,99.90
2018-04-07T00:43:31.642Z,99.90
2018-04-07T00:46:00.032Z,99.90
2018-04-07T00:48:31.818Z,99.90
2018-04-07T00:51:00.208Z,99.90
2018-04-07T00:53:29.369Z,99.90
2018-04-07T00:55:58.559Z,99.90
2018-04-07T00:58:26.908Z,99.90
2018-04-07T01:00:56.185Z,99.90
2018-04-07T01:03:25.548Z,99.90
2018-04-07T01:05:54.126Z,99.90
2018-04-07T01:08:22.535Z,99.90
2018-04-07T01:10:52.402Z,99.90
2018-04-07T01:13:20.932Z,99.90
2018-04-07T01:15:49.329Z,99.90
2018-04-07T01:18:18.634Z,99.90
2018-04-07T01:20:47.115Z,99.90
2018-04-07T01:25:46.393Z,99.90
2018-04-07T01:28:14.776Z,99.90
2018-04-07T01:30:43.368Z,99.90
2018-04-07T01:33:11.934Z,99.90
2018-04-07T01:35:40.373Z,99.90
2018-04-07T01:38:08.849Z,99.90
2018-04-07T01:40:37.227Z,99.90
2018-04-07T01:43:06.540Z,99.90
2018-04-07T01:45:35.071Z,99.90
2018-04-07T01:48:03.473Z,99.90
2018-04-07T01:50:31.847Z,99.90
2018-04-07T01:53:01.038Z,99.90
2018-04-07T01:55:29.452Z,99.90
2018-04-07T01:57:57.819Z,99.90
2018-04-07T02:00:26.210Z,99.90
2018-04-07T02:02:55.406Z,99.90
2018-04-07T02:05:23.978Z,99.90
2018-04-07T02:07:52.529Z,99.90
2018-04-07T02:10:20.892Z,99.90
2018-04-07T02:12:54.741Z,99.90
2018-04-07T02:15:28.594Z,99.90
2018-04-07T02:17:59.571Z,99.90
2018-04-07T02:20:28.916Z,99.90
2018-04-07T02:22:57.402Z,99.90
2018-04-07T02:25:25.884Z,99.90
2018-04-07T02:27:55.068Z,99.90
2018-04-07T02:30:23.447Z,99.90
2018-04-07T02:32:51.895Z,99.90
2018-04-07T02:35:20.270Z,99.90
2018-04-07T02:37:48.842Z,99.90
2018-04-07T02:40:17.641Z,99.90
2018-04-07T02:42:46.166Z,99.90
2018-04-07T02:45:14.657Z,99.90
2018-04-07T02:47:43.979Z,99.90
2018-04-07T02:50:12.465Z,99.90
2018-04-07T02:52:40.837Z,99.90
2018-04-07T02:55:09.187Z,99.90
2018-04-07T02:57:37.573Z,99.90
2018-04-07T03:00:06.025Z,99.90
2018-04-07T03:02:34.722Z,99.90
2018-04-07T03:05:03.080Z,99.90
2018-04-07T03:07:31.572Z,99.90
2018-04-07T03:09:59.981Z,99.90
2018-04-07T03:14:55.353Z,99.90
2018-04-07T03:17:24.502Z,99.90
2018-04-07T03:19:52.886Z,99.90
2018-04-07T03:22:22.097Z,99.90
2018-04-07T03:24:51.265Z,99.90
2018-04-07T03:27:19.670Z,99.90
2018-04-07T03:29:48.078Z,99.90
2018-04-07T03:32:16.442Z,99.90
2018-04-07T03:34:44.809Z,99.90
2018-04-07T03:37:13.210Z,99.90
2018-04-07T03:39:43.905Z,99.90
2018-04-07T03:42:12.435Z,99.90
2018-04-07T03:44:40.925Z,99.90
2018-04-07T03:47:09.356Z,99.90
2018-04-07T03:49:37.741Z,99.90
2018-04-07T03:52:06.130Z,99.90
2018-04-07T03:54:34.505Z,99.90
2018-04-07T03:57:02.896Z,99.90
2018-04-07T03:59:31.311Z,99.90
2018-04-07T04:02:04.229Z,99.90
2018-04-07T04:04:32.640Z,99.90
2018-04-07T04:07:01.215Z,99.90
2018-04-07T04:09:29.598Z,99.90
2018-04-07T04:11:58.012Z,99.90
2018-04-07T04:14:26.408Z,99.90
2018-04-07T04:16:54.883Z,99.90
2018-04-07T04:19:23.306Z,99.90
2018-04-07T04:21:51.705Z,99.90
2018-04-07T04:24:25.498Z,99.90
2018-04-07T04:26:59.384Z,99.90
2018-04-07T04:29:29.265Z,99.90
2018-04-07T04:31:57.669Z,99.90
2018-04-07T04:34:26.037Z,99.90
2018-04-07T04:36:54.428Z,99.90
2018-04-07T04:39:22.970Z,99.90
2018-04-07T04:41:52.178Z,99.90
2018-04-07T04:44:20.533Z,99.90
2018-04-07T04:46:48.915Z,99.90
2018-04-07T04:49:17.501Z,99.90
2018-04-07T04:51:45.881Z,99.90
2018-04-07T04:54:14.290Z,99.90
2018-04-07T04:56:42.714Z,99.90
2018-04-07T04:59:11.100Z,99.90
2018-04-07T05:01:39.657Z,99.90
2018-04-07T05:04:08.101Z,99.90
2018-04-07T05:06:36.479Z,99.90
2018-04-07T05:09:04.848Z,99.90
2018-04-07T05:11:33.265Z,99.90
2018-04-07T05:14:03.238Z,99.90
2018-04-07T05:16:31.590Z,99.90
2018-04-07T05:18:59.950Z,99.90
2018-04-07T05:21:28.353Z,99.90
2018-04-07T05:23:56.933Z,99.90
2018-04-07T05:26:25.395Z,99.90
2018-04-07T05:28:54.013Z,99.90
2018-04-07T05:31:22.383Z,99.90
2018-04-07T05:33:50.765Z,99.90
2018-04-07T05:36:22.237Z,99.90
2018-04-07T05:38:50.801Z,99.90
2018-04-07T05:41:19.187Z,99.90
2018-04-07T05:43:47.763Z,99.90
2018-04-07T05:46:16.161Z,99.90
2018-04-07T05:48:44.529Z,99.90
2018-04-07T05:51:13.764Z,99.90
2018-04-07T05:53:42.213Z,99.90
2018-04-07T05:56:10.609Z,99.90
2018-04-07T05:58:44.533Z,99.90
2018-04-07T06:01:12.963Z,99.90
2018-04-07T06:03:41.373Z,99.90
2018-04-07T06:06:09.775Z,99.90
2018-04-07T06:08:38.185Z,99.90
2018-04-07T06:11:06.729Z,99.90
2018-04-07T06:13:35.189Z,99.90
2018-04-07T06:16:03.606Z,99.90
2018-04-07T06:18:31.982Z,99.90
2018-04-07T06:21:02.662Z,99.90
2018-04-07T06:23:31.838Z,99.90
2018-04-07T06:26:00.386Z,99.90
2018-04-07T06:28:29.019Z,99.90
2018-04-07T06:30:57.400Z,99.90
2018-04-07T06:33:25.993Z,99.90
2018-04-07T06:35:54.385Z,99.90
2018-04-07T06:38:22.825Z,99.90
2018-04-07T06:40:51.985Z,99.80
2018-04-07T06:43:20.431Z,99.80
2018-04-07T06:45:48.835Z,99.10
2018-04-07T06:48:17.222Z,99.50
2018-04-07T06:50:45.612Z,99.10
2018-04-07T06:53:14.793Z,99.00
2018-04-07T06:55:44.122Z,99.00
2018-04-07T06:58:12.517Z,99.00
2018-04-07T07:00:40.911Z,98.40
2018-04-07T07:03:10.105Z,99.10
2018-04-07T07:05:40.872Z,99.10
2018-04-07T07:08:09.277Z,99.90
2018-04-07T07:10:37.739Z,98.90
2018-04-07T07:13:06.868Z,99.10
2018-04-07T07:15:35.440Z,99.10
2018-04-07T07:18:03.821Z,98.30
2018-04-07T07:20:32.197Z,98.00
2018-04-07T07:23:01.420Z,96.40
2018-04-07T07:25:30.776Z,97.10
2018-04-07T07:27:59.161Z,97.10
2018-04-07T07:30:28.522Z,96.00
2018-04-07T07:32:57.540Z,96.00
2018-04-07T07:35:25.992Z,96.10
2018-04-07T07:37:55.206Z,95.70
2018-04-07T07:40:24.381Z,95.70
2018-04-07T07:42:52.937Z,96.20
2018-04-07T07:45:21.305Z,94.60
2018-04-07T07:47:49.779Z,93.70
2018-04-07T07:50:20.549Z,92.50
2018-04-07T07:52:49.117Z,92.80
2018-04-07T07:55:17.526Z,92.50
2018-04-07T07:57:45.893Z,92.70
2018-04-07T08:00:14.339Z,91.00
2018-04-07T08:02:42.706Z,90.80
2018-04-07T08:05:11.263Z,90.30
2018-04-07T08:07:39.735Z,90.40
2018-04-07T08:10:08.119Z,88.10
2018-04-07T08:12:36.699Z,86.30
2018-04-07T08:15:06.035Z,78.60
2018-04-07T08:17:34.407Z,78.00
2018-04-07T08:20:03.462Z,76.80
2018-04-07T08:22:31.846Z,76.80
2018-04-07T08:25:00.206Z,78.60
2018-04-07T08:27:28.619Z,74.70
2018-04-07T08:29:57.046Z,78.90
2018-04-07T08:32:26.249Z,73.00
2018-04-07T08:34:58.277Z,72.90
2018-04-07T08:37:26.696Z,72.30
2018-04-07T08:39:55.888Z,71.80
2018-04-07T08:42:25.071Z,72.60
2018-04-07T08:44:53.660Z,71.90
2018-04-07T08:47:22.060Z,71.10
2018-04-07T08:49:50.466Z,68.00
2018-04-07T08:52:18.909Z,67.20
2018-04-07T08:54:47.301Z,73.50
2018-04-07T08:57:19.268Z,69.00
2018-04-07T08:59:47.660Z,66.10
2018-04-07T09:02:16.030Z,64.30
2018-04-07T09:04:44.424Z,63.30
2018-04-07T09:07:12.830Z,64.10
2018-04-07T09:09:41.240Z,66.30
2018-04-07T09:12:10.500Z,56.60
2018-04-07T09:14:38.879Z,56.50
2018-04-07T09:17:07.266Z,52.00
2018-04-07T09:19:38.340Z,52.40
2018-04-07T09:22:07.504Z,51.50
2018-04-07T09:24:35.895Z,51.50
2018-04-07T09:27:04.299Z,48.20
2018-04-07T09:29:32.889Z,46.30
2018-04-07T09:32:01.299Z,47.10
2018-04-07T09:34:29.708Z,47.50
2018-04-07T09:36:58.139Z,43.90
2018-04-07T09:39:26.702Z,45.90
2018-04-07T09:42:00.542Z,42.40
2018-04-07T09:44:35.284Z,45.20
2018-04-07T09:47:06.786Z,46.40
2018-04-07T09:49:35.379Z,46.40
2018-04-07T09:52:03.774Z,45.70
2018-04-07T09:54:32.181Z,47.30
2018-04-07T09:57:00.591Z,50.60
2018-04-07T09:59:29.724Z,55.10
2018-04-07T10:01:59.100Z,55.10
2018-04-07T10:04:27.616Z,55.20
2018-04-07T10:06:56.007Z,55.20
2018-04-07T10:09:24.389Z,56.10
2018-04-07T10:11:52.769Z,57.00
2018-04-07T10:14:21.345Z,57.00
2018-04-07T10:16:49.768Z,57.40
2018-04-07T10:19:18.949Z,55.80
2018-04-07T10:21:48.302Z,53.10
2018-04-07T10:24:16.670Z,53.00
2018-04-07T10:26:45.835Z,52.10
2018-04-07T10:29:15.059Z,56.40
2018-04-07T10:31:49.661Z,54.40
2018-04-07T10:34:18.051Z,54.30
2018-04-07T10:36:46.436Z,54.60
2018-04-07T10:39:15.780Z,53.70
2018-04-07T10:41:44.989Z,50.90
2018-04-07T10:44:13.410Z,51.10
2018-04-07T10:46:41.777Z,48.30
2018-04-07T10:49:10.373Z,46.30
2018-04-07T10:51:39.705Z,44.40
2018-04-07T10:54:09.036Z,42.80
2018-04-07T10:56:37.439Z,42.80
2018-04-07T10:59:06.870Z,43.70
2018-04-07T11:01:35.255Z,41.80
2018-04-07T11:04:04.633Z,38.10
2018-04-07T11:06:33.068Z,38.10
2018-04-07T11:09:01.456Z,40.90
2018-04-07T11:11:30.804Z,36.90
2018-04-07T11:13:59.189Z,36.90
2018-04-07T11:16:30.036Z,35.70
2018-04-07T11:18:58.429Z,39.50
2018-04-07T11:21:27.796Z,38.00
2018-04-07T11:23:57.489Z,38.60
2018-04-07T11:26:25.925Z,38.60
2018-04-07T11:28:54.360Z,38.20
2018-04-07T11:31:22.829Z,36.80
2018-04-07T11:33:51.209Z,38.00
2018-04-07T11:36:19.616Z,38.90
2018-04-07T11:41:53.440Z,38.50
2018-04-07T11:44:21.858Z,36.80
2018-04-07T11:46:51.154Z,38.60
2018-04-07T11:49:19.607Z,38.00
2018-04-07T11:51:48.395Z,38.10
2018-04-07T11:54:16.781Z,38.00
2018-04-07T11:56:45.166Z,35.40
2018-04-07T11:59:13.581Z,35.00
2018-04-07T12:01:42.294Z,36.20
2018-04-07T12:04:15.986Z,36.20
2018-04-07T12:06:45.217Z,37.90
2018-04-07T12:09:14.372Z,35.00
2018-04-07T12:11:42.795Z,34.90
2018-04-07T12:14:12.221Z,35.40
2018-04-07T12:16:41.349Z,35.70
2018-04-07T12:19:09.777Z,35.70
2018-04-07T12:21:42.782Z,35.60
2018-04-07T12:24:11.218Z,36.80
2018-04-07T12:26:39.617Z,32.60
2018-04-07T12:29:08.817Z,33.30
2018-04-07T12:31:37.268Z,34.00
2018-04-07T12:34:05.852Z,34.50
2018-04-07T12:36:34.420Z,35.40
2018-04-07T12:39:02.865Z,35.90
2018-04-07T12:41:31.250Z,34.30
2018-04-07T12:43:59.813Z,32.80
2018-04-07T12:46:28.450Z,33.70
2018-04-07T12:49:00.256Z,35.70
2018-04-07T12:51:29.632Z,34.60
2018-04-07T12:53:58.207Z,34.00
2018-04-07T12:56:26.781Z,35.00
2018-04-07T12:58:55.269Z,35.20
2018-04-07T13:01:23.781Z,36.40
2018-04-07T13:03:52.150Z,35.70
2018-04-07T13:06:20.709Z,35.20
2018-04-07T13:08:49.109Z,36.10
2018-04-07T13:11:17.529Z,37.60
2018-04-07T13:13:46.885Z,37.30
2018-04-07T13:16:16.226Z,37.20
2018-04-07T13:18:45.406Z,36.00
2018-04-07T13:21:14.544Z,35.90
2018-04-07T13:23:43.814Z,34.80
2018-04-07T13:26:12.235Z,34.70
2018-04-07T13:28:40.613Z,36.20
2018-04-07T13:31:09.049Z,36.80
2018-04-07T13:33:38.952Z,36.40
2018-04-07T13:36:07.958Z,35.30
2018-04-07T13:38:36.347Z,35.40
2018-04-07T13:41:04.765Z,36.20
2018-04-07T13:43:33.915Z,34.70
2018-04-07T13:46:02.443Z,34.60
2018-04-07T13:48:30.861Z,31.50
2018-04-07T13:50:59.440Z,31.20
2018-04-07T13:53:28.588Z,32.90
2018-04-07T13:55:59.583Z,32.90
2018-04-07T13:58:27.989Z,34.60
2018-04-07T14:00:56.362Z,34.60
2018-04-07T14:03:24.775Z,35.40
2018-04-07T14:05:53.203Z,36.40
2018-04-07T14:08:21.577Z,35.10
2018-04-07T14:10:50.038Z,35.20
2018-04-07T14:13:18.413Z,34.50
2018-04-07T14:15:46.967Z,35.70
2018-04-07T14:18:16.122Z,34.30
2018-04-07T14:20:45.453Z,36.40
2018-04-07T14:23:15.582Z,36.50
2018-04-07T14:25:43.989Z,36.50
2018-04-07T14:28:12.385Z,35.10
2018-04-07T14:30:40.836Z,35.90
2018-04-07T14:33:09.988Z,37.50
2018-04-07T14:35:38.686Z,37.50
2018-04-07T14:38:07.092Z,36.00
2018-04-07T14:40:40.886Z,37.50
2018-04-07T14:43:10.079Z,38.70
2018-04-07T14:45:40.232Z,36.40
2018-04-07T14:48:08.617Z,36.30
2018-04-07T14:50:37.812Z,37.00
2018-04-07T14:53:12.673Z,36.40
2018-04-07T14:55:41.245Z,36.40
2018-04-07T14:58:09.677Z,36.40
2018-04-07T15:00:38.101Z,38.10
2018-04-07T15:03:06.514Z,40.60
2018-04-07T15:05:35.785Z,39.30
2018-04-07T15:08:04.189Z,39.30
2018-04-07T15:10:32.665Z,41.40
2018-04-07T15:13:01.077Z,41.30
2018-04-07T15:15:29.564Z,42.60
2018-04-07T15:17:58.772Z,43.50
2018-04-07T15:20:27.201Z,43.50
2018-04-07T15:23:01.731Z,43.90
2018-04-07T15:25:30.459Z,43.50
2018-04-07T15:27:58.860Z,44.40
2018-04-07T15:30:27.281Z,43.90
2018-04-07T15:32:55.694Z,44.10
2018-04-07T15:35:24.545Z,42.90
2018-04-07T15:37:53.017Z,43.90
2018-04-07T15:40:21.405Z,45.00
2018-04-07T15:42:49.840Z,45.40
2018-04-07T15:45:19.021Z,48.00
2018-04-07T15:47:47.411Z,47.50
2018-04-07T15:50:15.842Z,46.60
2018-04-07T15:52:46.117Z,48.30
2018-04-07T15:55:14.522Z,48.20
2018-04-07T15:57:43.684Z,50.20
2018-04-07T16:00:14.023Z,50.10
2018-04-07T16:02:42.440Z,49.50
2018-04-07T16:05:10.841Z,50.40
2018-04-07T16:07:41.714Z,50.50
2018-04-07T16:10:11.049Z,50.90
2018-04-07T16:12:39.589Z,50.80
2018-04-07T16:15:08.047Z,52.70
2018-04-07T16:17:36.581Z,53.10
2018-04-07T16:20:05.950Z,53.90
2018-04-07T16:22:42.592Z,53.90
2018-04-07T16:25:11.064Z,54.10
2018-04-07T16:27:40.190Z,53.70
2018-04-07T16:30:08.713Z,53.70
2018-04-07T16:32:37.301Z,55.50
2018-04-07T16:35:05.753Z,53.10
2018-04-07T16:37:34.377Z,54.20
2018-04-07T16:40:02.898Z,55.30
2018-04-07T16:42:33.258Z,56.60
2018-04-07T16:45:03.862Z,56.60
2018-04-07T16:47:32.460Z,56.40
2018-04-07T16:50:06.333Z,55.70
2018-04-07T16:52:35.694Z,55.70
2018-04-07T16:55:04.874Z,57.00
2018-04-07T16:57:33.483Z,56.90
2018-04-07T17:00:01.882Z,55.60
2018-04-07T17:02:30.373Z,55.70
2018-04-07T17:04:59.576Z,55.60
2018-04-07T17:07:28.813Z,58.10
2018-04-07T17:09:57.281Z,58.00
2018-04-07T17:12:28.396Z,58.00
2018-04-07T17:14:57.110Z,58.30
2018-04-07T17:17:25.759Z,58.50
2018-04-07T17:19:54.133Z,58.40
2018-04-07T17:22:23.365Z,58.50
2018-04-07T17:24:51.792Z,58.70
2018-04-07T17:27:21.133Z,59.80
2018-04-07T17:29:49.604Z,59.80
2018-04-07T17:32:18.956Z,62.70
2018-04-07T17:34:47.560Z,64.30
2018-04-07T17:37:15.973Z,64.50
2018-04-07T17:39:44.393Z,65.30
2018-04-07T17:42:12.765Z,66.10
2018-04-07T17:44:41.321Z,66.50
2018-04-07T17:47:10.665Z,65.80
2018-04-07T17:49:43.815Z,65.70
2018-04-07T17:52:08.786Z,66.10
2018-04-07T17:54:37.168Z,66.10
2018-04-07T17:57:10.137Z,65.30
2018-04-07T17:59:38.497Z,63.70
2018-04-07T18:02:06.886Z,63.10
2018-04-07T18:04:35.309Z,63.50
2018-04-07T18:07:04.505Z,65.50
2018-04-07T18:09:33.675Z,64.60
2018-04-07T18:12:02.310Z,64.60
2018-04-07T18:14:30.712Z,64.20
2018-04-07T18:16:59.087Z,64.70
2018-04-07T18:19:28.997Z,66.00
2018-04-07T18:21:57.585Z,67.40
2018-04-07T18:24:26.163Z,67.30
2018-04-07T18:26:55.373Z,69.50
2018-04-07T18:29:23.926Z,69.80
2018-04-07T18:31:52.532Z,70.20
2018-04-07T18:34:22.211Z,69.10
2018-04-07T18:36:51.457Z,70.30
2018-04-07T18:39:19.880Z,70.30
2018-04-07T18:41:50.709Z,71.00
2018-04-07T18:44:19.245Z,72.00
2018-04-07T18:46:47.625Z,76.40
2018-04-07T18:49:16.065Z,76.10
2018-04-07T18:51:44.627Z,78.80
2018-04-07T18:54:13.029Z,81.30
2018-04-07T18:56:42.424Z,80.20
2018-04-07T18:59:11.585Z,81.70
2018-04-07T19:01:40.775Z,83.20
2018-04-07T19:04:09.260Z,84.10
2018-04-07T19:06:37.628Z,84.20
2018-04-07T19:09:06.065Z,85.40
2018-04-07T19:11:35.242Z,86.60
2018-04-07T19:14:03.717Z,86.50
2018-04-07T19:16:32.252Z,85.80
2018-04-07T19:19:00.971Z,86.90
2018-04-07T19:21:29.392Z,86.80
2018-04-07T19:23:57.855Z,87.70
2018-04-07T19:26:32.339Z,88.10
2018-04-07T19:29:06.139Z,88.00
2018-04-07T19:31:40.758Z,88.60
2018-04-07T19:34:10.710Z,88.60
2018-04-07T19:45:13.594Z,90.10
2018-04-07T19:47:42.756Z,90.30
2018-04-07T19:50:11.146Z,90.20
2018-04-07T19:52:39.556Z,90.90
2018-04-07T19:55:08.063Z,90.40
2018-04-07T19:57:36.440Z,90.60
2018-04-07T20:00:22.214Z,90.60
2018-04-07T20:02:51.393Z,91.40
2018-04-07T20:05:19.960Z,91.30
2018-04-07T20:07:48.365Z,91.20
2018-04-07T20:10:16.929Z,91.40
2018-04-07T20:12:45.323Z,91.90
2018-04-07T20:15:19.110Z,92.10
2018-04-07T20:17:48.396Z,92.30
2018-04-07T20:20:16.978Z,92.30
2018-04-07T20:22:46.123Z,92.80
2018-04-07T20:25:14.521Z,92.80
2018-04-07T20:27:42.945Z,93.00
2018-04-07T20:30:11.356Z,93.30
2018-04-07T20:32:39.728Z,93.40
2018-04-07T20:35:08.904Z,93.90
2018-04-07T20:37:38.820Z,94.00
2018-04-07T20:40:07.216Z,94.20
2018-04-07T20:42:35.692Z,94.40
2018-04-07T20:45:11.582Z,94.80
2018-04-07T20:47:40.164Z,94.80
2018-04-07T20:50:08.709Z,95.30
2018-04-07T20:52:39.154Z,95.30
2018-04-07T20:55:07.704Z,95.30
2018-04-07T20:57:36.152Z,95.10
2018-04-07T21:00:06.249Z,95.10
2018-04-07T21:02:34.793Z,95.30
2018-04-07T21:05:03.189Z,95.30
2018-04-07T21:07:31.812Z,95.30
2018-04-07T21:10:00.186Z,95.50
2018-04-07T21:12:28.584Z,95.70
2018-04-07T21:14:57.439Z,95.70
2018-04-07T21:17:25.818Z,95.70
2018-04-07T21:19:54.217Z,96.10
2018-04-07T21:22:28.213Z,95.90
2018-04-07T21:24:56.828Z,95.80
2018-04-07T21:27:25.299Z,95.80
2018-04-07T21:29:53.709Z,95.70
2018-04-07T21:32:22.924Z,95.80
2018-04-07T21:34:51.304Z,95.80
2018-04-07T21:37:20.167Z,95.80
2018-04-07T21:39:48.563Z,95.80
2018-04-07T21:42:16.957Z,95.50
2018-04-07T21:44:47.694Z,95.50
2018-04-07T21:47:16.259Z,95.50
2018-04-07T21:49:44.692Z,95.60
2018-04-07T21:52:13.252Z,96.00
2018-04-07T21:54:41.694Z,96.30
2018-04-07T21:57:10.096Z,96.20
2018-04-07T21:59:38.477Z,96.60
2018-04-07T22:02:07.824Z,96.20
2018-04-07T22:04:36.239Z,96.20
2018-04-07T22:07:08.176Z,95.80
2018-04-07T22:09:36.603Z,96.00
2018-04-07T22:12:05.013Z,95.80
2018-04-07T22:14:33.489Z,96.80
2018-04-07T22:17:01.881Z,96.60
2018-04-07T22:19:30.332Z,96.80
2018-04-07T22:21:58.786Z,97.20
2018-04-07T22:24:27.271Z,97.50
2018-04-07T22:26:55.689Z,97.70
2018-04-07T22:29:25.598Z,97.70
2018-04-07T22:31:54.042Z,97.90
2018-04-07T22:34:23.242Z,98.00
2018-04-07T22:36:51.685Z,98.10
2018-04-07T22:39:21.003Z,98.40
2018-04-07T22:41:50.275Z,98.40
2018-04-07T22:44:18.733Z,98.40
2018-04-07T22:46:49.135Z,98.80
2018-04-07T22:49:17.521Z,98.50
2018-04-07T22:51:51.428Z,99.00
2018-04-07T22:54:19.867Z,99.40
2018-04-07T22:56:48.324Z,98.80
2018-04-07T22:59:16.863Z,99.00
2018-04-07T23:01:45.290Z,99.00
2018-04-07T23:04:13.689Z,99.70
2018-04-07T23:06:42.245Z,99.40
2018-04-07T23:09:10.829Z,99.90
2018-04-07T23:11:47.452Z,99.90
2018-04-07T23:14:16.163Z,99.90
2018-04-07T23:16:44.572Z,99.90
2018-04-07T23:19:12.977Z,99.90
2018-04-07T23:21:41.415Z,99.90
2018-04-07T23:24:09.811Z,99.90
2018-04-07T23:26:38.251Z,99.90
2018-04-07T23:29:07.494Z,99.90
2018-04-07T23:31:36.819Z,99.90
2018-04-07T23:34:05.237Z,99.90
2018-04-07T23:36:39.143Z,99.90
2018-04-07T23:39:07.513Z,99.90
2018-04-07T23:41:36.025Z,99.90
2018-04-07T23:44:04.450Z,99.90
2018-04-07T23:46:32.894Z,99.90
2018-04-07T23:49:01.331Z,99.90
2018-04-07T23:51:29.888Z,99.90
2018-04-07T23:53:58.307Z,99.90
2018-04-07T23:56:26.754Z,99.90
2018-04-07T23:59:00.508Z,99.90
